sensor_id;sensor_type;location;lat;lon;timestamp;pressure;altitude;pressure_sealevel;temperature;humidity
9035;BME280;4552;43.422;24.592;2023-02-23T00:01:36;99822.50;;;7.20;85.00
9035;BME280;4552;43.422;24.592;2023-02-23T00:04:09;99803.44;;;7.14;84.85
9035;BME280;4552;43.422;24.592;2023-02-23T00:06:37;99799.06;;;7.25;84.58
9035;BME280;4552;43.422;24.592;2023-02-23T00:09:05;99793.91;;;7.05;84.53
9035;BME280;4552;43.422;24.592;2023-02-23T00:11:39;99812.13;;;7.03;84.63
9035;BME280;4552;43.422;24.592;2023-02-23T00:14:07;99819.94;;;7.06;84.70
9035;BME280;4552;43.422;24.592;2023-02-23T00:16:37;99797.41;;;6.96;85.10
9035;BME280;4552;43.422;24.592;2023-02-23T00:19:04;99794.81;;;6.95;85.55
9035;BME280;4552;43.422;24.592;2023-02-23T00:21:35;99800.84;;;7.01;86.42
9035;BME280;4552;43.422;24.592;2023-02-23T00:24:05;99808.66;;;6.92;86.20
9035;BME280;4552;43.422;24.592;2023-02-23T00:26:33;99813.00;;;7.08;86.32
9035;BME280;4552;43.422;24.592;2023-02-23T00:29:02;99818.22;;;6.93;85.71
9035;BME280;4552;43.422;24.592;2023-02-23T00:31:30;99809.56;;;6.82;86.03
9035;BME280;4552;43.422;24.592;2023-02-23T00:34:02;99822.56;;;6.85;85.85
9035;BME280;4552;43.422;24.592;2023-02-23T00:36:30;99823.44;;;6.89;86.22
9035;BME280;4552;43.422;24.592;2023-02-23T00:39:02;99824.28;;;6.73;85.78
9035;BME280;4552;43.422;24.592;2023-02-23T00:41:42;99806.09;;;6.61;86.19
9035;BME280;4552;43.422;24.592;2023-02-23T00:44:11;99822.56;;;6.76;87.55
9035;BME280;4552;43.422;24.592;2023-02-23T00:46:41;99832.97;;;6.79;88.14
9035;BME280;4552;43.422;24.592;2023-02-23T00:49:12;99811.28;;;6.74;87.24
9035;BME280;4552;43.422;24.592;2023-02-23T00:51:39;99780.97;;;6.49;86.38
9035;BME280;4552;43.422;24.592;2023-02-23T00:54:07;99819.09;;;6.65;86.88
9035;BME280;4552;43.422;24.592;2023-02-23T00:56:34;99821.69;;;6.43;87.59
9035;BME280;4552;43.422;24.592;2023-02-23T00:59:02;99816.50;;;6.40;87.52
9035;BME280;4552;43.422;24.592;2023-02-23T01:01:29;99812.13;;;6.40;87.70
9035;BME280;4552;43.422;24.592;2023-02-23T01:03:58;99794.81;;;6.27;87.54
9035;BME280;4552;43.422;24.592;2023-02-23T01:06:30;99816.50;;;6.50;87.74
9035;BME280;4552;43.422;24.592;2023-02-23T01:08:57;99798.31;;;6.44;87.75
9035;BME280;4552;43.422;24.592;2023-02-23T01:11:27;99826.00;;;6.33;86.81
9035;BME280;4552;43.422;24.592;2023-02-23T01:13:56;99817.34;;;6.34;86.51
9035;BME280;4552;43.422;24.592;2023-02-23T01:16:25;99808.63;;;6.05;86.14
9035;BME280;4552;43.422;24.592;2023-02-23T01:18:54;99809.47;;;5.86;86.88
9035;BME280;4552;43.422;24.592;2023-02-23T01:21:23;99816.31;;;5.81;87.85
9035;BME280;4552;43.422;24.592;2023-02-23T01:23:58;99785.09;;;5.60;88.16
9035;BME280;4552;43.422;24.592;2023-02-23T01:26:29;99797.22;;;5.63;88.75
9035;BME280;4552;43.422;24.592;2023-02-23T01:29:00;99817.16;;;5.65;90.24
9035;BME280;4552;43.422;24.592;2023-02-23T01:31:28;99792.81;;;5.42;90.61
9035;BME280;4552;43.422;24.592;2023-02-23T01:33:57;99811.94;;;5.64;91.15
9035;BME280;4552;43.422;24.592;2023-02-23T01:36:25;99816.31;;;5.81;91.34
9035;BME280;4552;43.422;24.592;2023-02-23T01:38:56;99823.31;;;5.88;89.70
9035;BME280;4552;43.422;24.592;2023-02-23T01:41:26;99785.97;;;5.59;88.13
9035;BME280;4552;43.422;24.592;2023-02-23T01:43:57;99820.75;;;5.91;89.06
9035;BME280;4552;43.422;24.592;2023-02-23T01:46:24;99807.66;;;5.76;88.45
9035;BME280;4552;43.422;24.592;2023-02-23T01:48:53;99812.81;;;5.66;88.16
9035;BME280;4552;43.422;24.592;2023-02-23T01:51:23;99803.22;;;5.48;87.69
9035;BME280;4552;43.422;24.592;2023-02-23T01:53:56;99825.81;;;5.73;87.70
9035;BME280;4552;43.422;24.592;2023-02-23T01:56:29;99809.38;;;5.68;87.65
9035;BME280;4552;43.422;24.592;2023-02-23T01:58:58;99795.38;;;5.31;89.36
9035;BME280;4552;43.422;24.592;2023-02-23T02:01:29;99803.22;;;5.48;89.49
9035;BME280;4552;43.422;24.592;2023-02-23T02:03:58;99790.25;;;5.51;88.71
9035;BME280;4552;43.422;24.592;2023-02-23T02:06:28;99809.34;;;5.56;89.56
9035;BME280;4552;43.422;24.592;2023-02-23T02:09:00;99819.78;;;5.71;88.97
9035;BME280;4552;43.422;24.592;2023-02-23T02:11:31;99820.63;;;5.76;88.15
9035;BME280;4552;43.422;24.592;2023-02-23T02:14:04;99791.06;;;5.41;88.28
9035;BME280;4552;43.422;24.592;2023-02-23T02:17:10;99811.84;;;5.44;88.49
9035;BME280;4552;43.422;24.592;2023-02-23T02:20:17;99808.34;;;5.33;89.58
9035;BME280;4552;43.422;24.592;2023-02-23T02:26:05;99795.41;;;5.36;90.15
9035;BME280;4552;43.422;24.592;2023-02-23T02:29:06;99798.00;;;5.42;90.61
9035;BME280;4552;43.422;24.592;2023-02-23T02:31:52;99800.63;;;5.47;91.48
9035;BME280;4552;43.422;24.592;2023-02-23T02:34:46;99803.28;;;5.66;92.70
9035;BME280;4552;43.422;24.592;2023-02-23T02:37:43;99789.41;;;5.54;90.97
9035;BME280;4552;43.422;24.592;2023-02-23T02:40:18;99795.34;;;5.25;90.28
9035;BME280;4552;43.422;24.592;2023-02-23T02:42:58;99793.72;;;5.47;90.91
9035;BME280;4552;43.422;24.592;2023-02-23T02:45:38;99790.94;;;5.11;89.36
9035;BME280;4552;43.422;24.592;2023-02-23T02:48:14;99817.75;;;5.14;90.05
9035;BME280;4552;43.422;24.592;2023-02-23T02:50:49;99811.59;;;4.96;89.57
9035;BME280;4552;43.422;24.592;2023-02-23T02:53:27;99815.06;;;4.98;90.14
9035;BME280;4552;43.422;24.592;2023-02-23T02:55:57;99819.44;;;5.09;89.37
9035;BME280;4552;43.422;24.592;2023-02-23T02:58:27;99825.47;;;5.01;88.75
9035;BME280;4552;43.422;24.592;2023-02-23T03:00:56;99829.75;;;4.96;89.47
9035;BME280;4552;43.422;24.592;2023-02-23T03:03:48;99825.38;;;4.89;90.92
9035;BME280;4552;43.422;24.592;2023-02-23T03:06:34;99819.22;;;4.75;91.39
9035;BME280;4552;43.422;24.592;2023-02-23T03:09:34;99821.78;;;4.72;92.49
9035;BME280;4552;43.422;24.592;2023-02-23T03:12:29;99809.88;;;4.98;93.80
9035;BME280;4552;43.422;24.592;2023-02-23T03:15:31;99836.81;;;5.16;93.62
9035;BME280;4552;43.422;24.592;2023-02-23T03:18:39;99831.50;;;5.04;94.29
9035;BME280;4552;43.422;24.592;2023-02-23T03:21:33;99841.03;;;5.01;93.29
9035;BME280;4552;43.422;24.592;2023-02-23T03:24:27;99853.16;;;5.08;92.92
9035;BME280;4552;43.422;24.592;2023-02-23T03:27:18;99829.53;;;4.67;92.88
9035;BME280;4552;43.422;24.592;2023-02-23T03:30:09;99839.03;;;4.70;93.13
9035;BME280;4552;43.422;24.592;2023-02-23T03:33:01;99855.44;;;4.66;92.66
9035;BME280;4552;43.422;24.592;2023-02-23T03:35:51;99840.59;;;4.50;93.17
9035;BME280;4552;43.422;24.592;2023-02-23T03:38:40;99853.50;;;4.45;94.31
9035;BME280;4552;43.422;24.592;2023-02-23T03:41:28;99844.72;;;4.30;95.52
9035;BME280;4552;43.422;24.592;2023-02-23T03:44:18;99859.41;;;4.28;97.08
9035;BME280;4552;43.422;24.592;2023-02-23T03:47:07;99840.31;;;4.20;98.04
9035;BME280;4552;43.422;24.592;2023-02-23T03:49:55;99825.66;;;4.20;99.28
9035;BME280;4552;43.422;24.592;2023-02-23T03:52:45;99854.41;;;4.46;98.85
9035;BME280;4552;43.422;24.592;2023-02-23T03:55:34;99838.78;;;4.40;98.21
9035;BME280;4552;43.422;24.592;2023-02-23T03:58:25;99869.31;;;4.75;98.46
9035;BME280;4552;43.422;24.592;2023-02-23T04:01:15;99867.47;;;4.61;96.84
9035;BME280;4552;43.422;24.592;2023-02-23T04:04:02;99853.59;;;4.53;95.52
9035;BME280;4552;43.422;24.592;2023-02-23T04:06:48;99838.97;;;4.61;96.04
9035;BME280;4552;43.422;24.592;2023-02-23T04:09:33;99855.50;;;4.72;97.63
9035;BME280;4552;43.422;24.592;2023-02-23T04:12:23;99850.84;;;4.38;96.45
9035;BME280;4552;43.422;24.592;2023-02-23T04:15:14;99840.91;;;3.96;95.55
9035;BME280;4552;43.422;24.592;2023-02-23T04:17:42;99882.78;;;4.35;96.17
9035;BME280;4552;43.422;24.592;2023-02-23T04:20:12;99880.78;;;4.10;94.24
9035;BME280;4552;43.422;24.592;2023-02-23T04:22:39;99891.84;;;3.96;95.14
9035;BME280;4552;43.422;24.592;2023-02-23T04:25:07;99885.66;;;3.83;95.37
9035;BME280;4552;43.422;24.592;2023-02-23T04:27:39;99882.03;;;3.69;96.04
9035;BME280;4552;43.422;24.592;2023-02-23T04:30:07;99852.56;;;3.58;96.64
9035;BME280;4552;43.422;24.592;2023-02-23T04:32:37;99895.09;;;3.80;96.19
9035;BME280;4552;43.422;24.592;2023-02-23T04:35:05;99877.56;;;3.56;95.71
9035;BME280;4552;43.422;24.592;2023-02-23T04:37:32;99872.28;;;3.51;95.82
9035;BME280;4552;43.422;24.592;2023-02-23T04:40:00;99886.19;;;3.59;96.25
9035;BME280;4552;43.422;24.592;2023-02-23T04:42:36;99894.97;;;3.69;95.79
9035;BME280;4552;43.422;24.592;2023-02-23T04:45:08;99896.97;;;3.90;97.03
9035;BME280;4552;43.422;24.592;2023-02-23T04:47:44;99896.16;;;3.95;96.05
9035;BME280;4552;43.422;24.592;2023-02-23T04:50:13;99875.59;;;4.10;96.93
9035;BME280;4552;43.422;24.592;2023-02-23T04:52:50;99909.28;;;4.12;95.77
9035;BME280;4552;43.422;24.592;2023-02-23T04:55:22;99902.09;;;3.87;96.10
9035;BME280;4552;43.422;24.592;2023-02-23T04:57:57;99899.34;;;3.76;96.34
9035;BME280;4552;43.422;24.592;2023-02-23T05:00:25;99910.78;;;3.92;98.40
9035;BME280;4552;43.422;24.592;2023-02-23T05:02:55;99903.53;;;3.64;97.72
9035;BME280;4552;43.422;24.592;2023-02-23T05:05:23;99917.25;;;3.59;97.93
9035;BME280;4552;43.422;24.592;2023-02-23T05:07:50;99913.00;;;3.65;97.49
9035;BME280;4552;43.422;24.592;2023-02-23T05:10:19;99916.44;;;3.62;97.21
9035;BME280;4552;43.422;24.592;2023-02-23T05:12:46;99911.06;;;3.48;97.96
9035;BME280;4552;43.422;24.592;2023-02-23T05:15:13;99911.81;;;3.41;98.25
9035;BME280;4552;43.422;24.592;2023-02-23T05:17:41;99937.25;;;3.71;98.88
9035;BME280;4552;43.422;24.592;2023-02-23T05:20:13;99920.50;;;3.43;98.33
9035;BME280;4552;43.422;24.592;2023-02-23T05:22:40;99952.72;;;3.65;97.88
9035;BME280;4552;43.422;24.592;2023-02-23T05:25:09;99937.16;;;3.62;97.38
9035;BME280;4552;43.422;24.592;2023-02-23T05:27:36;99946.66;;;3.65;96.48
9035;BME280;4552;43.422;24.592;2023-02-23T05:30:04;99955.34;;;3.70;96.01
9035;BME280;4552;43.422;24.592;2023-02-23T05:32:32;99940.03;;;3.85;95.84
9035;BME280;4552;43.422;24.592;2023-02-23T05:35:02;99949.00;;;4.11;97.51
9035;BME280;4552;43.422;24.592;2023-02-23T05:37:31;99969.88;;;4.26;98.31
9035;BME280;4552;43.422;24.592;2023-02-23T05:39:58;99929.94;;;4.06;97.40
9035;BME280;4552;43.422;24.592;2023-02-23T05:42:25;99946.66;;;4.32;97.49
9035;BME280;4552;43.422;24.592;2023-02-23T05:44:52;99968.56;;;4.61;98.18
9035;BME280;4552;43.422;24.592;2023-02-23T05:47:19;99972.94;;;4.68;97.44
9035;BME280;4552;43.422;24.592;2023-02-23T05:49:46;99953.13;;;4.73;96.66
9035;BME280;4552;43.422;24.592;2023-02-23T05:52:16;99953.25;;;4.88;95.72
9035;BME280;4552;43.422;24.592;2023-02-23T05:54:48;99959.41;;;4.99;95.00
9035;BME280;4552;43.422;24.592;2023-02-23T05:57:15;99993.47;;;5.41;95.73
9035;BME280;4552;43.422;24.592;2023-02-23T05:59:43;99989.25;;;5.52;96.44
9035;BME280;4552;43.422;24.592;2023-02-23T06:02:10;99997.91;;;5.53;96.98
9035;BME280;4552;43.422;24.592;2023-02-23T06:04:37;99997.03;;;5.52;97.57
9035;BME280;4552;43.422;24.592;2023-02-23T06:07:05;100002.31;;;5.67;97.21
9035;BME280;4552;43.422;24.592;2023-02-23T06:09:32;100017.13;;;5.76;97.37
9035;BME280;4552;43.422;24.592;2023-02-23T06:12:05;100022.41;;;5.88;96.96
9035;BME280;4552;43.422;24.592;2023-02-23T06:14:34;100016.41;;;5.96;96.81
9035;BME280;4552;43.422;24.592;2023-02-23T06:17:01;100020.84;;;6.15;95.78
9035;BME280;4552;43.422;24.592;2023-02-23T06:19:30;100004.44;;;6.25;95.59
9035;BME280;4552;43.422;24.592;2023-02-23T06:22:06;100015.81;;;6.56;94.82
9035;BME280;4552;43.422;24.592;2023-02-23T06:24:35;100026.25;;;6.62;93.98
9035;BME280;4552;43.422;24.592;2023-02-23T06:27:04;99994.16;;;6.54;93.37
9035;BME280;4552;43.422;24.592;2023-02-23T06:29:32;100021.97;;;6.76;93.04
9035;BME280;4552;43.422;24.592;2023-02-23T06:32:03;100021.19;;;7.16;91.44
9035;BME280;4552;43.422;24.592;2023-02-23T06:34:33;100013.34;;;6.93;89.06
9035;BME280;4552;43.422;24.592;2023-02-23T06:37:03;100005.56;;;7.07;88.16
9035;BME280;4552;43.422;24.592;2023-02-23T06:39:34;100025.50;;;7.34;86.27
9035;BME280;4552;43.422;24.592;2023-02-23T06:42:01;100041.13;;;7.35;85.81
9035;BME280;4552;43.422;24.592;2023-02-23T06:44:31;100035.91;;;7.03;85.75
9035;BME280;4552;43.422;24.592;2023-02-23T06:47:02;100025.47;;;6.97;85.94
9035;BME280;4552;43.422;24.592;2023-02-23T06:49:31;100044.59;;;7.24;85.24
9035;BME280;4552;43.422;24.592;2023-02-23T06:51:58;100057.63;;;7.49;85.25
9035;BME280;4552;43.422;24.592;2023-02-23T06:54:27;100018.59;;;7.33;84.24
9035;BME280;4552;43.422;24.592;2023-02-23T06:56:56;100019.47;;;7.51;84.51
9035;BME280;4552;43.422;24.592;2023-02-23T06:59:24;100026.41;;;7.42;83.28
9035;BME280;4552;43.422;24.592;2023-02-23T07:01:53;100015.97;;;7.40;83.92
9035;BME280;4552;43.422;24.592;2023-02-23T07:04:23;100040.28;;;7.50;83.49
9035;BME280;4552;43.422;24.592;2023-02-23T07:06:50;100043.75;;;7.82;84.82
9035;BME280;4552;43.422;24.592;2023-02-23T07:09:17;100012.50;;;7.62;84.20
9035;BME280;4552;43.422;24.592;2023-02-23T07:11:48;100035.94;;;7.82;84.26
9035;BME280;4552;43.422;24.592;2023-02-23T07:14:16;100030.69;;;7.94;84.83
9035;BME280;4552;43.422;24.592;2023-02-23T07:16:43;100051.50;;;8.15;84.92
9035;BME280;4552;43.422;24.592;2023-02-23T07:19:13;100040.22;;;8.22;84.94
9035;BME280;4552;43.422;24.592;2023-02-23T07:21:40;100043.69;;;8.12;84.40
9035;BME280;4552;43.422;24.592;2023-02-23T07:24:08;100061.94;;;8.12;84.64
9035;BME280;4552;43.422;24.592;2023-02-23T07:26:35;100063.69;;;8.10;86.59
9035;BME280;4552;43.422;24.592;2023-02-23T07:29:05;100062.84;;;7.91;87.85
9035;BME280;4552;43.422;24.592;2023-02-23T07:31:33;100069.75;;;8.12;86.86
9035;BME280;4552;43.422;24.592;2023-02-23T07:34:00;100040.28;;;7.69;87.91
9035;BME280;4552;43.422;24.592;2023-02-23T07:36:36;100054.16;;;7.89;88.49
9035;BME280;4552;43.422;24.592;2023-02-23T07:39:05;100068.91;;;8.07;88.36
9035;BME280;4552;43.422;24.592;2023-02-23T07:41:33;100068.00;;;8.30;87.17
9035;BME280;4552;43.422;24.592;2023-02-23T07:44:01;100056.72;;;8.15;86.91
9035;BME280;4552;43.422;24.592;2023-02-23T07:46:30;100048.06;;;7.93;87.67
9035;BME280;4552;43.422;24.592;2023-02-23T07:49:00;100067.97;;;8.42;87.75
9035;BME280;4552;43.422;24.592;2023-02-23T07:51:29;100060.97;;;8.55;85.73
9035;BME280;4552;43.422;24.592;2023-02-23T07:54:05;100060.09;;;8.56;85.92
9035;BME280;4552;43.422;24.592;2023-02-23T07:56:32;100060.16;;;8.38;86.28
9035;BME280;4552;43.422;24.592;2023-02-23T07:59:00;100048.00;;;8.43;86.30
9035;BME280;4552;43.422;24.592;2023-02-23T08:01:30;100043.63;;;8.46;86.36
9035;BME280;4552;43.422;24.592;2023-02-23T08:04:01;100067.13;;;8.40;87.47
9035;BME280;4552;43.422;24.592;2023-02-23T08:06:29;100082.75;;;8.54;86.49
9035;BME280;4552;43.422;24.592;2023-02-23T08:08:57;100070.53;;;8.59;86.96
9035;BME280;4552;43.422;24.592;2023-02-23T08:11:29;100091.38;;;8.74;87.08
9035;BME280;4552;43.422;24.592;2023-02-23T08:13:56;100047.81;;;8.82;85.78
9035;BME280;4552;43.422;24.592;2023-02-23T08:16:24;100054.78;;;8.86;84.63
9035;BME280;4552;43.422;24.592;2023-02-23T08:18:53;100066.00;;;8.94;84.89
9035;BME280;4552;43.422;24.592;2023-02-23T08:21:23;100088.69;;;8.86;84.73
9035;BME280;4552;43.422;24.592;2023-02-23T08:23:50;100080.06;;;8.73;86.19
9035;BME280;4552;43.422;24.592;2023-02-23T08:26:18;100091.38;;;8.62;87.14
9035;BME280;4552;43.422;24.592;2023-02-23T08:28:49;100077.44;;;8.73;87.26
9035;BME280;4552;43.422;24.592;2023-02-23T08:31:16;100079.91;;;8.99;87.03
9035;BME280;4552;43.422;24.592;2023-02-23T08:33:45;100068.53;;;9.15;84.89
9035;BME280;4552;43.422;24.592;2023-02-23T08:36:12;100080.69;;;9.16;84.73
9035;BME280;4552;43.422;24.592;2023-02-23T08:38:40;100080.66;;;9.24;84.61
9035;BME280;4552;43.422;24.592;2023-02-23T08:41:07;100072.84;;;9.19;84.04
9035;BME280;4552;43.422;24.592;2023-02-23T08:43:34;100061.53;;;9.17;83.97
9035;BME280;4552;43.422;24.592;2023-02-23T08:46:05;100080.53;;;9.42;83.10
9035;BME280;4552;43.422;24.592;2023-02-23T08:48:32;100096.16;;;9.49;82.97
9035;BME280;4552;43.422;24.592;2023-02-23T08:51:00;100075.28;;;9.46;82.51
9035;BME280;4552;43.422;24.592;2023-02-23T08:53:27;100078.75;;;9.48;82.06
9035;BME280;4552;43.422;24.592;2023-02-23T08:55:59;100107.34;;;9.69;81.88
9035;BME280;4552;43.422;24.592;2023-02-23T08:58:26;100095.06;;;9.80;81.24
9035;BME280;4552;43.422;24.592;2023-02-23T09:00:55;100103.03;;;9.62;81.55
9035;BME280;4552;43.422;24.592;2023-02-23T09:03:25;100086.34;;;9.80;81.16
9035;BME280;4552;43.422;24.592;2023-02-23T09:05:56;100096.66;;;9.93;79.39
9035;BME280;4552;43.422;24.592;2023-02-23T09:08:23;100108.69;;;10.20;77.94
9035;BME280;4552;43.422;24.592;2023-02-23T09:10:50;100104.44;;;10.08;77.80
9035;BME280;4552;43.422;24.592;2023-02-23T09:13:18;100094.06;;;9.96;78.26
9035;BME280;4552;43.422;24.592;2023-02-23T09:15:45;100104.25;;;10.26;77.35
9035;BME280;4552;43.422;24.592;2023-02-23T09:18:12;100104.38;;;10.14;77.02
9035;BME280;4552;43.422;24.592;2023-02-23T09:20:43;100099.28;;;9.96;77.46
9035;BME280;4552;43.422;24.592;2023-02-23T09:23:12;100082.72;;;9.97;77.61
9035;BME280;4552;43.422;24.592;2023-02-23T09:25:40;100084.34;;;10.12;77.15
9035;BME280;4552;43.422;24.592;2023-02-23T09:28:10;100089.59;;;10.10;76.68
9035;BME280;4552;43.422;24.592;2023-02-23T09:30:40;100089.47;;;10.22;76.75
9035;BME280;4552;43.422;24.592;2023-02-23T09:33:08;100083.41;;;10.20;76.39
9035;BME280;4552;43.422;24.592;2023-02-23T09:35:36;100082.34;;;10.36;76.42
9035;BME280;4552;43.422;24.592;2023-02-23T09:38:05;100106.63;;;10.50;75.56
9035;BME280;4552;43.422;24.592;2023-02-23T09:40:41;100110.00;;;10.62;75.31
9035;BME280;4552;43.422;24.592;2023-02-23T09:43:18;100098.63;;;10.63;75.19
9035;BME280;4552;43.422;24.592;2023-02-23T09:45:50;100095.78;;;10.81;74.25
9035;BME280;4552;43.422;24.592;2023-02-23T09:48:20;100116.53;;;10.99;73.58
9035;BME280;4552;43.422;24.592;2023-02-23T09:50:50;100101.59;;;11.04;72.72
9035;BME280;4552;43.422;24.592;2023-02-23T09:53:37;100115.91;;;10.79;73.37
9035;BME280;4552;43.422;24.592;2023-02-23T09:56:12;100096.81;;;10.69;73.84
9035;BME280;4552;43.422;24.592;2023-02-23T09:58:42;100088.97;;;10.69;73.04
9035;BME280;4552;43.422;24.592;2023-02-23T10:01:36;100121.00;;;10.91;74.55
9035;BME280;4552;43.422;24.592;2023-02-23T10:04:10;100121.38;;;11.29;71.73
9035;BME280;4552;43.422;24.592;2023-02-23T10:06:40;100124.88;;;11.29;71.83
9035;BME280;4552;43.422;24.592;2023-02-23T10:09:17;100122.13;;;11.38;71.14
9035;BME280;4552;43.422;24.592;2023-02-23T10:11:52;100126.06;;;11.68;69.66
9035;BME280;4552;43.422;24.592;2023-02-23T10:14:41;100118.19;;;11.68;68.99
9035;BME280;4552;43.422;24.592;2023-02-23T10:17:24;100115.63;;;11.62;68.10
9035;BME280;4552;43.422;24.592;2023-02-23T10:19:59;100114.22;;;11.40;69.09
9035;BME280;4552;43.422;24.592;2023-02-23T10:22:32;100107.50;;;11.80;68.68
9035;BME280;4552;43.422;24.592;2023-02-23T10:25:05;100097.41;;;11.53;67.91
9035;BME280;4552;43.422;24.592;2023-02-23T10:27:39;100108.41;;;11.79;68.71
9035;BME280;4552;43.422;24.592;2023-02-23T10:30:17;100115.88;;;12.03;67.48
9035;BME280;4552;43.422;24.592;2023-02-23T10:32:54;100111.59;;;11.97;67.79
9035;BME280;4552;43.422;24.592;2023-02-23T10:35:27;100093.09;;;11.50;68.71
9035;BME280;4552;43.422;24.592;2023-02-23T10:37:55;100100.66;;;11.71;69.20
9035;BME280;4552;43.422;24.592;2023-02-23T10:40:26;100103.50;;;12.11;67.50
9035;BME280;4552;43.422;24.592;2023-02-23T10:42:54;100105.75;;;12.31;66.86
9035;BME280;4552;43.422;24.592;2023-02-23T10:45:25;100098.19;;;12.14;66.85
9035;BME280;4552;43.422;24.592;2023-02-23T10:47:56;100079.09;;;12.06;66.63
9035;BME280;4552;43.422;24.592;2023-02-23T10:50:24;100096.16;;;12.31;64.94
9035;BME280;4552;43.422;24.592;2023-02-23T10:52:56;100095.88;;;12.45;64.74
9035;BME280;4552;43.422;24.592;2023-02-23T10:55:29;100071.13;;;12.59;64.11
9035;BME280;4552;43.422;24.592;2023-02-23T10:58:07;100090.50;;;12.95;63.41
9035;BME280;4552;43.422;24.592;2023-02-23T11:00:49;100096.56;;;12.98;62.71
9035;BME280;4552;43.422;24.592;2023-02-23T11:03:26;100090.94;;;12.74;64.02
9035;BME280;4552;43.422;24.592;2023-02-23T11:06:00;100071.91;;;13.05;62.88
9035;BME280;4552;43.422;24.592;2023-02-23T11:08:31;100066.75;;;12.99;62.40
9035;BME280;4552;43.422;24.592;2023-02-23T11:11:18;100067.84;;;12.89;62.93
9035;BME280;4552;43.422;24.592;2023-02-23T11:13:52;100084.09;;;13.09;62.07
9035;BME280;4552;43.422;24.592;2023-02-23T11:16:23;100061.69;;;12.90;62.59
9035;BME280;4552;43.422;24.592;2023-02-23T11:18:54;100044.66;;;12.68;62.70
9035;BME280;4552;43.422;24.592;2023-02-23T11:21:25;100089.75;;;13.31;61.21
9035;BME280;4552;43.422;24.592;2023-02-23T11:23:58;100083.63;;;13.30;60.48
9035;BME280;4552;43.422;24.592;2023-02-23T11:26:38;100087.31;;;13.23;61.06
9035;BME280;4552;43.422;24.592;2023-02-23T11:29:14;100048.44;;;12.96;60.29
9035;BME280;4552;43.422;24.592;2023-02-23T11:31:47;100050.44;;;13.26;60.16
9035;BME280;4552;43.422;24.592;2023-02-23T11:34:22;100087.25;;;13.63;59.15
9035;BME280;4552;43.422;24.592;2023-02-23T11:37:03;100073.59;;;13.47;58.91
9035;BME280;4552;43.422;24.592;2023-02-23T11:39:35;100048.09;;;13.51;58.84
9035;BME280;4552;43.422;24.592;2023-02-23T11:42:18;100063.03;;;13.85;58.23
9035;BME280;4552;43.422;24.592;2023-02-23T11:44:52;100067.59;;;13.77;57.96
9035;BME280;4552;43.422;24.592;2023-02-23T11:47:31;100069.66;;;13.65;58.20
9035;BME280;4552;43.422;24.592;2023-02-23T11:50:02;100061.72;;;13.30;58.83
9035;BME280;4552;43.422;24.592;2023-02-23T11:52:30;100076.84;;;13.58;58.90
9035;BME280;4552;43.422;24.592;2023-02-23T11:55:06;100075.56;;;13.74;57.89
9035;BME280;4552;43.422;24.592;2023-02-23T11:57:40;100059.97;;;13.67;57.34
9035;BME280;4552;43.422;24.592;2023-02-23T12:00:11;100071.09;;;13.78;57.60
9035;BME280;4552;43.422;24.592;2023-02-23T12:02:48;100061.72;;;13.66;57.92
9035;BME280;4552;43.422;24.592;2023-02-23T12:05:22;100038.88;;;13.33;58.39
9035;BME280;4552;43.422;24.592;2023-02-23T12:07:54;100051.50;;;13.54;58.56
9035;BME280;4552;43.422;24.592;2023-02-23T12:10:28;100071.03;;;13.81;57.65
9035;BME280;4552;43.422;24.592;2023-02-23T12:13:15;100066.75;;;13.75;57.69
9035;BME280;4552;43.422;24.592;2023-02-23T12:15:49;100039.84;;;13.29;58.63
9035;BME280;4552;43.422;24.592;2023-02-23T12:18:36;100064.47;;;13.25;59.40
9035;BME280;4552;43.422;24.592;2023-02-23T12:21:14;100068.81;;;13.64;58.31
9035;BME280;4552;43.422;24.592;2023-02-23T12:23:44;100038.72;;;13.74;57.40
9035;BME280;4552;43.422;24.592;2023-02-23T12:26:16;100049.00;;;13.85;56.79
9035;BME280;4552;43.422;24.592;2023-02-23T12:28:53;100069.88;;;14.26;55.72
9035;BME280;4552;43.422;24.592;2023-02-23T12:31:30;100052.50;;;13.85;56.29
9035;BME280;4552;43.422;24.592;2023-02-23T12:34:11;100064.69;;;13.53;57.78
9035;BME280;4552;43.422;24.592;2023-02-23T12:36:43;100040.25;;;13.49;58.28
9035;BME280;4552;43.422;24.592;2023-02-23T12:39:17;100078.84;;;13.47;58.24
9035;BME280;4552;43.422;24.592;2023-02-23T12:41:56;100050.94;;;13.40;58.46
9035;BME280;4552;43.422;24.592;2023-02-23T12:44:40;100070.53;;;13.65;58.06
9035;BME280;4552;43.422;24.592;2023-02-23T12:47:21;100055.25;;;13.44;58.34
9035;BME280;4552;43.422;24.592;2023-02-23T12:49:59;100057.28;;;13.33;58.80
9035;BME280;4552;43.422;24.592;2023-02-23T12:52:41;100071.66;;;13.55;58.62
9035;BME280;4552;43.422;24.592;2023-02-23T12:55:11;100069.19;;;13.49;58.58
9035;BME280;4552;43.422;24.592;2023-02-23T12:57:47;100070.59;;;13.62;58.11
9035;BME280;4552;43.422;24.592;2023-02-23T13:00:53;100051.44;;;13.57;57.66
9035;BME280;4552;43.422;24.592;2023-02-23T13:03:57;100079.13;;;14.07;56.91
9035;BME280;4552;43.422;24.592;2023-02-23T13:06:37;100067.09;;;13.97;56.75
9035;BME280;4552;43.422;24.592;2023-02-23T13:09:21;100073.31;;;13.94;57.13
9035;BME280;4552;43.422;24.592;2023-02-23T13:12:05;100076.63;;;13.67;57.42
9035;BME280;4552;43.422;24.592;2023-02-23T13:14:41;100069.31;;;13.80;57.25
9035;BME280;4552;43.422;24.592;2023-02-23T13:17:26;100048.34;;;13.75;56.97
9035;BME280;4552;43.422;24.592;2023-02-23T13:19:57;100046.25;;;13.89;56.95
9035;BME280;4552;43.422;24.592;2023-02-23T13:22:32;100059.13;;;14.00;56.29
9035;BME280;4552;43.422;24.592;2023-02-23T13:25:16;100048.63;;;13.98;56.03
9035;BME280;4552;43.422;24.592;2023-02-23T13:27:52;100078.09;;;14.13;55.73
9035;BME280;4552;43.422;24.592;2023-02-23T13:30:24;100044.63;;;14.18;55.52
9035;BME280;4552;43.422;24.592;2023-02-23T13:32:53;100051.69;;;14.16;55.14
9035;BME280;4552;43.422;24.592;2023-02-23T13:35:24;100035.09;;;14.14;54.99
9035;BME280;4552;43.422;24.592;2023-02-23T13:37:59;100063.44;;;14.38;54.66
9035;BME280;4552;43.422;24.592;2023-02-23T13:40:30;100063.72;;;14.59;54.32
9035;BME280;4552;43.422;24.592;2023-02-23T13:43:08;100066.22;;;14.64;54.01
9035;BME280;4552;43.422;24.592;2023-02-23T13:46:02;100074.13;;;14.64;53.73
9035;BME280;4552;43.422;24.592;2023-02-23T13:48:50;100075.53;;;14.45;54.15
9035;BME280;4552;43.422;24.592;2023-02-23T13:51:26;100064.44;;;14.32;54.65